createdAt,value
2023-03-02T00:00:55.006Z,9.55
2023-03-02T00:03:28.961Z,7.32
2023-03-02T00:06:02.220Z,9.02
2023-03-02T00:08:35.648Z,6.75
2023-03-02T00:11:10.183Z,6.70
2023-03-02T00:13:44.241Z,7.75
2023-03-02T00:16:17.185Z,5.57
2023-03-02T00:18:50.072Z,7.88
2023-03-02T00:21:24.423Z,6.53
2023-03-02T00:23:57.249Z,8.80
2023-03-02T00:26:34.393Z,6.32
2023-03-02T00:29:07.362Z,8.88
2023-03-02T00:31:40.393Z,9.50
2023-03-02T00:34:13.240Z,6.65
2023-03-02T00:36:49.361Z,6.20
2023-03-02T00:39:22.159Z,9.30
2023-03-02T00:41:56.436Z,8.40
2023-03-02T00:44:29.433Z,6.88
2023-03-02T00:47:02.630Z,7.47
2023-03-02T00:49:36.504Z,6.85
2023-03-02T00:52:09.641Z,6.93
2023-03-02T00:54:42.777Z,7.07
2023-03-02T00:57:17.005Z,6.22
2023-03-02T00:59:50.023Z,7.22
2023-03-02T01:02:43.969Z,8.40
2023-03-02T01:05:19.804Z,6.55
2023-03-02T01:07:53.605Z,8.43
2023-03-02T01:10:26.618Z,6.38
2023-03-02T01:13:00.927Z,7.68
2023-03-02T01:15:35.461Z,4.90
2023-03-02T01:18:08.334Z,10.03
2023-03-02T01:20:41.599Z,8.27
2023-03-02T01:23:14.466Z,7.72
2023-03-02T01:25:47.265Z,8.25
2023-03-02T01:28:21.530Z,5.88
2023-03-02T01:30:54.418Z,8.00
2023-03-02T01:33:27.264Z,5.65
2023-03-02T01:36:00.135Z,7.45
2023-03-02T01:38:33.285Z,8.98
2023-03-02T01:41:06.498Z,5.97
2023-03-02T01:43:40.945Z,8.15
2023-03-02T01:46:17.348Z,9.10
2023-03-02T01:48:58.081Z,6.60
2023-03-02T01:51:51.992Z,9.82
2023-03-02T01:54:25.011Z,6.80
2023-03-02T01:57:04.068Z,6.88
2023-03-02T01:59:41.641Z,7.35
2023-03-02T02:02:15.679Z,7.22
2023-03-02T02:04:49.797Z,8.02
2023-03-02T02:07:23.056Z,5.87
2023-03-02T02:09:56.654Z,9.60
2023-03-02T02:12:29.671Z,6.95
2023-03-02T02:15:04.999Z,9.18
2023-03-02T02:17:38.283Z,7.03
2023-03-02T02:20:23.923Z,8.73
2023-03-02T02:23:07.425Z,7.78
2023-03-02T02:25:55.306Z,6.00
2023-03-02T02:28:34.020Z,8.40
2023-03-02T02:31:14.191Z,9.23
2023-03-02T02:33:53.148Z,10.20
2023-03-02T02:36:33.357Z,5.72
2023-03-02T02:39:17.174Z,5.47
2023-03-02T02:41:56.407Z,6.95
2023-03-02T02:44:32.577Z,8.35
2023-03-02T02:47:14.936Z,5.90
2023-03-02T02:49:51.188Z,6.03
2023-03-02T02:52:27.867Z,5.15
2023-03-02T02:55:00.821Z,7.15
2023-03-02T02:57:35.805Z,7.53
2023-03-02T03:00:19.822Z,6.75
2023-03-02T03:02:58.404Z,6.45
2023-03-02T03:05:31.394Z,7.07
2023-03-02T03:08:09.530Z,6.97
2023-03-02T03:10:45.498Z,8.63
2023-03-02T03:13:19.739Z,9.02
2023-03-02T03:15:53.687Z,6.03
2023-03-02T03:18:26.558Z,7.45
2023-03-02T03:21:00.060Z,5.65
2023-03-02T03:23:33.293Z,7.80
2023-03-02T03:26:06.295Z,6.93
2023-03-02T03:28:40.513Z,6.18
2023-03-02T03:31:13.512Z,6.18
2023-03-02T03:33:46.526Z,8.32
2023-03-02T03:36:19.653Z,6.82
2023-03-02T03:38:52.982Z,8.55
2023-03-02T03:41:26.781Z,8.80
2023-03-02T03:44:01.662Z,9.55
2023-03-02T03:46:37.090Z,7.10
2023-03-02T03:49:10.137Z,7.53
2023-03-02T03:51:43.339Z,7.00
2023-03-02T03:54:16.476Z,7.10
2023-03-02T03:56:51.148Z,7.78
2023-03-02T03:59:27.653Z,6.50
2023-03-02T04:02:04.256Z,8.10
2023-03-02T04:04:47.067Z,9.07
2023-03-02T04:07:22.976Z,6.97
2023-03-02T04:10:03.293Z,7.68
2023-03-02T04:12:39.948Z,9.98
2023-03-02T04:15:17.371Z,8.00
2023-03-02T04:17:53.146Z,6.57
2023-03-02T04:20:28.718Z,7.43
2023-03-02T04:23:02.398Z,7.43
2023-03-02T04:25:35.914Z,9.98
2023-03-02T04:28:17.620Z,6.95
2023-03-02T04:30:53.584Z,7.93
2023-03-02T04:33:26.717Z,6.20
2023-03-02T04:36:00.957Z,7.95
2023-03-02T04:38:33.871Z,8.02
2023-03-02T04:41:06.748Z,11.75
2023-03-02T04:43:39.824Z,9.23
2023-03-02T04:46:16.121Z,8.77
2023-03-02T04:48:48.940Z,8.90
2023-03-02T04:51:25.782Z,9.65
2023-03-02T04:54:01.341Z,10.32
2023-03-02T04:56:35.672Z,7.35
2023-03-02T04:59:08.939Z,6.97
2023-03-02T05:01:44.402Z,9.85
2023-03-02T05:04:17.517Z,9.43
2023-03-02T05:06:50.637Z,7.22
2023-03-02T05:09:27.220Z,9.18
2023-03-02T05:12:01.668Z,7.93
2023-03-02T05:14:34.628Z,10.63
2023-03-02T05:17:08.951Z,11.43
2023-03-02T05:19:45.595Z,13.40
2023-03-02T05:22:18.603Z,10.43
2023-03-02T05:24:51.404Z,11.38
2023-03-02T05:27:26.239Z,10.70
2023-03-02T05:29:59.117Z,10.75
2023-03-02T05:32:33.477Z,10.02
2023-03-02T05:35:07.361Z,17.38
2023-03-02T05:37:42.565Z,12.25
2023-03-02T05:40:17.464Z,13.05
2023-03-02T05:45:26.635Z,14.32
2023-03-02T05:48:00.865Z,13.98
2023-03-02T05:50:34.152Z,17.05
2023-03-02T05:53:07.074Z,17.92
2023-03-02T05:55:39.973Z,13.57
2023-03-02T05:58:15.774Z,15.82
2023-03-02T06:00:49.794Z,17.60
2023-03-02T06:03:24.450Z,14.23
2023-03-02T06:05:57.413Z,14.80
2023-03-02T06:08:30.280Z,17.98
2023-03-02T06:11:03.125Z,14.27
2023-03-02T06:13:37.342Z,17.00
2023-03-02T06:16:13.057Z,14.23
2023-03-02T06:18:47.776Z,18.63
2023-03-02T06:21:20.631Z,17.52
2023-03-02T06:23:53.424Z,22.75
2023-03-02T06:26:26.224Z,22.15
2023-03-02T06:28:59.060Z,21.45
2023-03-02T06:31:32.333Z,21.40
2023-03-02T06:34:06.492Z,24.90
2023-03-02T06:36:39.861Z,21.15
2023-03-02T06:39:15.771Z,23.52
2023-03-02T06:41:50.307Z,21.38
2023-03-02T06:44:24.508Z,24.73
2023-03-02T06:46:57.600Z,26.85
2023-03-02T06:49:31.786Z,23.73
2023-03-02T06:52:07.087Z,21.75
2023-03-02T06:54:40.214Z,29.23
2023-03-02T06:57:12.973Z,27.38
2023-03-02T06:59:46.315Z,22.60
2023-03-02T07:02:20.655Z,23.70
2023-03-02T07:04:55.179Z,21.63
2023-03-02T07:07:28.193Z,23.02
2023-03-02T07:10:01.269Z,24.55
2023-03-02T07:12:34.405Z,28.13
2023-03-02T07:15:11.064Z,22.77
2023-03-02T07:17:45.165Z,22.08
2023-03-02T07:20:20.180Z,25.75
2023-03-02T07:25:25.888Z,24.42
2023-03-02T07:27:59.101Z,24.98
2023-03-02T07:30:32.037Z,20.67
2023-03-02T07:33:05.127Z,19.98
2023-03-02T07:35:39.342Z,29.23
2023-03-02T07:38:12.160Z,23.77
2023-03-02T07:40:45.838Z,19.40
2023-03-02T07:43:18.778Z,24.88
2023-03-02T07:45:51.941Z,22.85
2023-03-02T07:48:25.495Z,24.92
2023-03-02T07:51:00.903Z,22.75
2023-03-02T07:53:34.687Z,23.70
2023-03-02T07:56:09.392Z,21.65
2023-03-02T07:58:42.671Z,20.23
2023-03-02T08:01:15.532Z,22.08
2023-03-02T08:03:48.520Z,21.05
2023-03-02T08:06:22.974Z,20.00
2023-03-02T08:11:29.058Z,19.02
2023-03-02T08:14:02.416Z,20.77
2023-03-02T08:16:35.752Z,17.40
2023-03-02T08:19:09.732Z,21.02
2023-03-02T08:21:44.267Z,20.35
2023-03-02T08:24:17.542Z,21.38
2023-03-02T08:26:51.586Z,16.52
2023-03-02T08:29:25.069Z,19.90
2023-03-02T08:31:58.850Z,15.35
2023-03-02T08:34:31.933Z,17.67
2023-03-02T08:37:06.138Z,16.38
2023-03-02T08:39:38.977Z,18.60
2023-03-02T08:42:11.813Z,19.70
2023-03-02T08:44:45.043Z,14.98
2023-03-02T08:47:17.866Z,17.15
2023-03-02T08:49:51.154Z,16.63
2023-03-02T08:52:25.640Z,17.67
2023-03-02T08:54:58.580Z,15.82
2023-03-02T08:57:31.417Z,14.60
2023-03-02T09:00:08.561Z,13.65
2023-03-02T09:02:41.647Z,16.02
2023-03-02T09:05:14.438Z,14.48
2023-03-02T09:07:48.755Z,18.42
2023-03-02T09:10:22.591Z,14.68
2023-03-02T09:12:55.373Z,14.52
2023-03-02T09:15:28.352Z,11.98
2023-03-02T09:18:02.532Z,13.35
2023-03-02T09:20:35.446Z,15.38
2023-03-02T09:23:10.940Z,16.15
2023-03-02T09:25:46.252Z,16.63
2023-03-02T09:28:19.731Z,16.60
2023-03-02T09:30:54.446Z,16.58
2023-03-02T09:33:28.001Z,17.35
2023-03-02T09:36:01.502Z,16.05
2023-03-02T09:38:36.206Z,13.57
2023-03-02T09:41:29.542Z,15.35
2023-03-02T09:44:18.572Z,13.18
2023-03-02T09:46:53.401Z,12.30
2023-03-02T09:49:34.016Z,11.48
2023-03-02T09:52:12.297Z,13.02
2023-03-02T09:54:46.499Z,13.02
2023-03-02T09:57:22.884Z,13.88
2023-03-02T10:00:09.487Z,12.55
2023-03-02T10:02:51.976Z,10.38
2023-03-02T10:05:28.447Z,12.95
2023-03-02T10:08:01.979Z,14.40
2023-03-02T10:10:44.857Z,13.73
2023-03-02T10:13:24.415Z,11.75
2023-03-02T10:16:11.508Z,11.07
2023-03-02T10:18:47.977Z,15.02
2023-03-02T10:21:26.064Z,10.55
2023-03-02T10:24:05.144Z,11.60
2023-03-02T10:26:42.391Z,9.88
2023-03-02T10:29:37.099Z,11.15
2023-03-02T10:32:19.909Z,10.77
2023-03-02T10:34:54.504Z,7.60
2023-03-02T10:37:31.400Z,9.35
2023-03-02T10:40:04.309Z,10.30
2023-03-02T10:42:41.212Z,8.90
2023-03-02T10:45:25.012Z,8.60
2023-03-02T10:48:05.091Z,8.93
2023-03-02T10:50:38.437Z,7.53
2023-03-02T10:53:19.299Z,6.82
2023-03-02T10:55:54.094Z,7.60
2023-03-02T10:58:33.430Z,7.13
2023-03-02T11:01:15.872Z,8.32
2023-03-02T11:04:00.406Z,10.07
2023-03-02T11:06:33.541Z,8.40
2023-03-02T11:09:08.256Z,8.88
2023-03-02T11:11:41.180Z,7.55
2023-03-02T11:14:18.673Z,9.48
2023-03-02T11:16:53.590Z,8.48
2023-03-02T11:19:34.063Z,6.78
2023-03-02T11:22:16.769Z,7.10
2023-03-02T11:24:54.697Z,7.93
2023-03-02T11:27:31.058Z,7.57
2023-03-02T11:30:13.642Z,7.35
2023-03-02T11:32:53.264Z,8.38
2023-03-02T11:35:32.973Z,7.63
2023-03-02T11:38:14.455Z,7.32
2023-03-02T11:40:51.880Z,8.45
2023-03-02T11:43:24.827Z,5.63
2023-03-02T11:46:01.772Z,6.18
2023-03-02T11:48:43.338Z,7.85
2023-03-02T11:51:23.126Z,7.15
2023-03-02T11:54:02.620Z,6.63
2023-03-02T11:56:39.575Z,7.15
2023-03-02T11:59:18.116Z,5.68
2023-03-02T12:01:54.402Z,8.75
2023-03-02T12:04:32.200Z,6.43
2023-03-02T12:07:18.212Z,6.85
2023-03-02T12:10:03.531Z,5.50
2023-03-02T12:12:41.907Z,6.55
2023-03-02T12:15:38.491Z,5.35
2023-03-02T12:18:47.256Z,6.22
2023-03-02T12:21:22.785Z,7.72
2023-03-02T12:24:01.236Z,5.80
2023-03-02T12:26:36.903Z,6.70
2023-03-02T12:29:24.638Z,8.13
2023-03-02T12:31:57.854Z,7.65
2023-03-02T12:34:38.391Z,6.50
2023-03-02T12:37:18.628Z,5.72
2023-03-02T12:40:23.112Z,5.63
2023-03-02T12:43:20.136Z,6.10
2023-03-02T12:46:30.109Z,5.28
2023-03-02T12:49:22.450Z,5.78
2023-03-02T12:51:58.064Z,6.32
2023-03-02T12:54:32.761Z,6.10
2023-03-02T12:57:09.546Z,6.05
2023-03-02T12:59:44.656Z,5.22
2023-03-02T13:02:20.666Z,5.30
2023-03-02T13:04:55.480Z,5.22
2023-03-02T13:07:37.056Z,5.70
2023-03-02T13:10:23.381Z,5.28
2023-03-02T13:12:56.480Z,6.45
2023-03-02T13:15:29.857Z,9.82
2023-03-02T13:18:02.753Z,5.70
2023-03-02T13:20:35.682Z,5.68
2023-03-02T13:23:12.267Z,7.10
2023-03-02T13:25:50.195Z,6.75
2023-03-02T13:28:27.669Z,6.88
2023-03-02T13:31:02.346Z,5.72
2023-03-02T13:33:44.444Z,5.38
2023-03-02T13:36:19.081Z,6.63
2023-03-02T13:38:55.941Z,6.85
2023-03-02T13:41:30.601Z,5.93
2023-03-02T13:44:19.619Z,6.78
2023-03-02T13:46:52.658Z,6.25
2023-03-02T13:49:29.943Z,5.97
2023-03-02T13:52:08.802Z,6.20
2023-03-02T13:54:46.140Z,7.75
2023-03-02T13:57:25.940Z,7.72
2023-03-02T13:59:59.374Z,7.30
2023-03-02T14:02:32.216Z,7.35
2023-03-02T14:05:07.235Z,6.97
2023-03-02T14:07:40.165Z,5.97
2023-03-02T14:10:15.758Z,6.78
2023-03-02T14:12:55.252Z,7.40
2023-03-02T14:15:28.129Z,7.45
2023-03-02T14:18:01.036Z,8.93
2023-03-02T14:20:33.865Z,7.32
2023-03-02T14:23:07.993Z,9.65
2023-03-02T14:25:42.298Z,5.82
2023-03-02T14:28:22.503Z,9.57
2023-03-02T14:30:57.888Z,7.43
2023-03-02T14:33:30.737Z,8.65
2023-03-02T14:36:06.999Z,9.18
2023-03-02T14:38:39.792Z,9.17
2023-03-02T14:41:20.437Z,9.77
2023-03-02T14:43:55.624Z,6.88
2023-03-02T14:46:28.488Z,7.72
2023-03-02T14:49:01.316Z,10.40
2023-03-02T14:51:37.311Z,9.25
2023-03-02T14:54:15.912Z,8.15
2023-03-02T14:56:50.714Z,7.38
2023-03-02T14:59:23.690Z,8.73
2023-03-02T15:02:06.187Z,9.02
2023-03-02T15:04:45.877Z,7.93
2023-03-02T15:07:20.848Z,8.88
2023-03-02T15:09:53.704Z,7.47
2023-03-02T15:12:27.941Z,7.25
2023-03-02T15:17:34.036Z,8.50
2023-03-02T15:20:08.158Z,8.70
2023-03-02T15:22:40.970Z,9.68
2023-03-02T15:25:13.818Z,9.32
2023-03-02T15:27:48.595Z,8.48
2023-03-02T15:30:21.744Z,8.88
2023-03-02T15:32:54.778Z,10.13
2023-03-02T15:35:29.404Z,9.73
2023-03-02T15:40:37.392Z,9.85
2023-03-02T15:43:11.811Z,10.10
2023-03-02T15:45:46.174Z,9.73
2023-03-02T15:48:18.947Z,9.90
2023-03-02T15:50:57.426Z,8.18
2023-03-02T15:53:31.278Z,8.73
2023-03-02T15:56:06.026Z,11.45
2023-03-02T15:58:40.956Z,10.10
2023-03-02T16:01:15.739Z,8.80
2023-03-02T16:03:48.803Z,10.05
2023-03-02T16:06:23.522Z,10.07
2023-03-02T16:08:56.383Z,9.32
2023-03-02T16:11:29.394Z,8.15
2023-03-02T16:14:03.983Z,10.30
2023-03-02T16:16:37.473Z,10.43
2023-03-02T16:19:12.640Z,9.67
2023-03-02T16:21:45.557Z,10.65
2023-03-02T16:24:18.433Z,10.48
2023-03-02T16:26:54.342Z,11.43
2023-03-02T16:29:28.720Z,11.27
2023-03-02T16:32:01.730Z,9.65
2023-03-02T16:34:34.731Z,10.55
2023-03-02T16:37:07.568Z,11.38
2023-03-02T16:39:40.411Z,11.90
2023-03-02T16:42:13.520Z,10.93
2023-03-02T16:44:48.584Z,10.60
2023-03-02T16:47:21.443Z,13.15
2023-03-02T16:49:54.235Z,11.63
2023-03-02T16:52:27.202Z,11.68
2023-03-02T16:55:00.115Z,11.80
2023-03-02T16:57:32.938Z,11.20
2023-03-02T17:00:09.565Z,11.82
2023-03-02T17:02:42.462Z,11.95
2023-03-02T17:05:19.906Z,12.10
2023-03-02T17:07:56.951Z,12.55
2023-03-02T17:10:30.024Z,11.95
2023-03-02T17:13:02.970Z,12.35
2023-03-02T17:15:37.135Z,11.27
2023-03-02T17:18:10.389Z,11.73
2023-03-02T17:20:43.252Z,11.63
2023-03-02T17:23:16.442Z,10.00
2023-03-02T17:25:49.292Z,9.50
2023-03-02T17:28:22.140Z,10.48
2023-03-02T17:30:56.564Z,9.40
2023-03-02T17:33:30.504Z,10.77
2023-03-02T17:36:07.135Z,10.80
2023-03-02T17:38:40.517Z,10.73
2023-03-02T17:41:13.411Z,14.73
2023-03-02T17:43:46.407Z,13.15
2023-03-02T17:46:22.930Z,13.02
2023-03-02T17:48:57.908Z,11.43
2023-03-02T17:54:06.320Z,10.85
2023-03-02T17:56:41.342Z,11.77
2023-03-02T17:59:14.218Z,11.82
2023-03-02T18:01:48.391Z,11.30
2023-03-02T18:04:21.449Z,11.18
2023-03-02T18:06:55.059Z,11.70
2023-03-02T18:09:27.964Z,10.77
2023-03-02T18:12:02.635Z,11.65
2023-03-02T18:14:36.334Z,10.73
2023-03-02T18:17:10.637Z,12.68
2023-03-02T18:19:43.409Z,13.55
2023-03-02T18:22:16.413Z,11.77
2023-03-02T18:24:50.360Z,11.18
2023-03-02T18:27:23.788Z,12.95
2023-03-02T18:29:56.621Z,12.57
2023-03-02T18:32:31.097Z,13.05
2023-03-02T18:35:05.962Z,11.85
2023-03-02T18:37:39.057Z,12.85
2023-03-02T18:40:16.598Z,12.57
2023-03-02T18:42:49.555Z,13.18
2023-03-02T18:45:25.599Z,15.10
2023-03-02T18:48:01.111Z,15.00
2023-03-02T18:50:33.898Z,14.55
2023-03-02T18:53:09.654Z,17.10
2023-03-02T18:55:43.606Z,14.32
2023-03-02T18:58:20.156Z,17.45
2023-03-02T19:00:54.860Z,17.42
2023-03-02T19:03:30.821Z,14.95
2023-03-02T19:06:04.621Z,16.67
2023-03-02T19:08:40.459Z,17.30
2023-03-02T19:11:13.865Z,16.40
2023-03-02T19:13:47.011Z,19.52
2023-03-02T19:16:19.953Z,16.70
2023-03-02T19:18:54.245Z,16.25
2023-03-02T19:21:27.321Z,18.75
2023-03-02T19:24:01.573Z,18.05
2023-03-02T19:26:34.444Z,19.02
2023-03-02T19:29:07.403Z,17.75
2023-03-02T19:31:40.383Z,18.65
2023-03-02T19:34:14.663Z,20.00
2023-03-02T19:36:47.689Z,19.60
2023-03-02T19:39:21.290Z,23.10
2023-03-02T19:41:54.300Z,21.50
2023-03-02T19:44:27.092Z,22.30
2023-03-02T19:46:59.956Z,21.77
2023-03-02T19:49:34.086Z,20.80
2023-03-02T19:52:06.861Z,20.30
2023-03-02T19:54:43.432Z,20.50
2023-03-02T19:57:16.254Z,22.30
2023-03-02T19:59:49.051Z,20.63
2023-03-02T20:02:22.330Z,24.05
2023-03-02T20:04:56.459Z,22.80
2023-03-02T20:07:29.256Z,23.15
2023-03-02T20:10:03.095Z,23.30
2023-03-02T20:12:36.542Z,23.75
2023-03-02T20:15:10.074Z,23.90
2023-03-02T20:17:42.983Z,25.00
2023-03-02T20:20:17.413Z,22.27
2023-03-02T20:22:50.420Z,23.70
2023-03-02T20:25:23.848Z,25.42
2023-03-02T20:27:57.971Z,25.92
2023-03-02T20:30:33.765Z,24.07
2023-03-02T20:33:08.191Z,24.08
2023-03-02T20:35:45.062Z,22.70
2023-03-02T20:38:29.302Z,22.83
2023-03-02T20:41:03.295Z,24.92
2023-03-02T20:43:36.577Z,24.10
2023-03-02T20:46:13.583Z,25.08
2023-03-02T20:48:46.748Z,25.17
2023-03-02T20:51:22.637Z,24.10
2023-03-02T20:53:56.964Z,27.88
2023-03-02T20:56:29.833Z,25.65
2023-03-02T20:59:02.841Z,27.67
2023-03-02T21:01:35.696Z,26.40
2023-03-02T21:04:08.824Z,25.75
2023-03-02T21:06:43.797Z,22.73
2023-03-02T21:09:19.069Z,24.77
2023-03-02T21:11:52.251Z,23.65
2023-03-02T21:14:26.075Z,23.17
2023-03-02T21:16:59.560Z,25.30
2023-03-02T21:19:34.005Z,24.48
2023-03-02T21:22:08.760Z,22.73
2023-03-02T21:24:41.665Z,25.23
2023-03-02T21:27:14.681Z,23.20
2023-03-02T21:29:47.564Z,20.58
2023-03-02T21:32:20.491Z,27.50
2023-03-02T21:34:53.465Z,22.33
2023-03-02T21:37:27.984Z,21.70
2023-03-02T21:40:00.905Z,23.63
2023-03-02T21:42:34.028Z,24.77
2023-03-02T21:45:10.492Z,23.92
2023-03-02T21:47:43.979Z,23.08
2023-03-02T21:50:20.607Z,25.67
2023-03-02T21:52:55.254Z,22.83
2023-03-02T21:55:30.008Z,23.50
2023-03-02T22:00:40.431Z,21.25
2023-03-02T22:03:14.230Z,24.85
2023-03-02T22:05:47.137Z,25.63
2023-03-02T22:08:22.168Z,24.67
2023-03-02T22:13:31.454Z,24.55
2023-03-02T22:16:13.414Z,23.95
2023-03-02T22:18:48.567Z,23.52
2023-03-02T22:24:19.322Z,27.05
2023-03-02T22:27:00.502Z,22.75
2023-03-02T22:29:38.827Z,23.25
2023-03-02T22:32:18.190Z,19.40
2023-03-02T22:34:53.110Z,22.98
2023-03-02T22:40:07.831Z,23.63
2023-03-02T22:42:40.664Z,22.38
2023-03-02T22:45:15.598Z,25.10
2023-03-02T22:50:26.987Z,19.23
2023-03-02T22:53:04.170Z,22.08
2023-03-02T22:55:41.210Z,22.38
2023-03-02T22:58:32.504Z,22.08
2023-03-02T23:01:19.829Z,23.63
2023-03-02T23:03:55.375Z,26.15
2023-03-02T23:06:32.438Z,21.15
2023-03-02T23:09:07.160Z,21.00
2023-03-02T23:11:43.054Z,23.60
2023-03-02T23:14:23.456Z,22.95
2023-03-02T23:17:00.405Z,22.27
2023-03-02T23:19:33.593Z,24.92
2023-03-02T23:22:06.546Z,22.80
2023-03-02T23:24:39.556Z,23.98
2023-03-02T23:27:15.273Z,22.00
2023-03-02T23:29:48.788Z,23.95
2023-03-02T23:32:21.710Z,25.65
2023-03-02T23:34:54.735Z,22.10
2023-03-02T23:37:27.555Z,22.58
2023-03-02T23:40:00.460Z,29.83
2023-03-02T23:42:34.741Z,24.88
2023-03-02T23:45:08.915Z,21.13
2023-03-02T23:47:41.895Z,22.50
2023-03-02T23:50:15.143Z,25.52
2023-03-02T23:52:49.200Z,21.30
2023-03-02T23:55:22.032Z,25.37
2023-03-02T23:57:56.265Z,28.25
